createdAt,value
2022-09-16T00:00:30.861Z,16.00
2022-09-16T00:03:00.080Z,16.00
2022-09-16T00:05:27.954Z,16.00
2022-09-16T00:07:56.362Z,16.10
2022-09-16T00:10:24.401Z,16.10
2022-09-16T00:12:52.335Z,16.10
2022-09-16T00:15:20.621Z,16.00
2022-09-16T00:17:49.258Z,16.10
2022-09-16T00:20:18.603Z,16.00
2022-09-16T00:22:46.421Z,16.00
2022-09-16T00:25:16.695Z,16.00
2022-09-16T00:27:44.625Z,16.00
2022-09-16T00:30:12.718Z,16.00
2022-09-16T00:32:40.521Z,16.00
2022-09-16T00:35:08.933Z,16.00
2022-09-16T00:37:38.104Z,15.90
2022-09-16T00:40:06.566Z,15.90
2022-09-16T00:42:37.856Z,15.90
2022-09-16T00:45:06.579Z,15.80
2022-09-16T00:47:37.084Z,15.70
2022-09-16T00:50:08.080Z,15.70
2022-09-16T00:52:36.322Z,15.70
2022-09-16T00:55:08.285Z,15.70
2022-09-16T00:57:36.895Z,15.70
2022-09-16T01:00:05.825Z,15.70
2022-09-16T01:02:33.779Z,15.70
2022-09-16T01:05:03.383Z,15.70
2022-09-16T01:07:32.691Z,15.70
2022-09-16T01:10:00.689Z,15.70
2022-09-16T01:12:30.568Z,15.60
2022-09-16T01:14:58.725Z,15.60
2022-09-16T01:17:35.998Z,15.60
2022-09-16T01:20:23.308Z,15.60
2022-09-16T01:23:01.174Z,15.50
2022-09-16T01:25:33.960Z,15.50
2022-09-16T01:28:13.655Z,15.50
2022-09-16T01:30:49.882Z,15.50
2022-09-16T01:33:21.033Z,15.40
2022-09-16T01:35:55.520Z,15.40
2022-09-16T01:38:27.795Z,15.30
2022-09-16T01:41:02.408Z,15.30
2022-09-16T01:43:33.509Z,15.30
2022-09-16T01:46:04.364Z,15.40
2022-09-16T01:48:35.214Z,15.40
2022-09-16T01:51:05.152Z,15.40
2022-09-16T01:53:34.468Z,15.30
2022-09-16T01:56:05.566Z,15.20
2022-09-16T01:58:36.547Z,15.20
2022-09-16T02:01:07.754Z,15.20
2022-09-16T02:03:37.589Z,15.20
2022-09-16T02:06:07.775Z,15.20
2022-09-16T02:08:37.503Z,15.20
2022-09-16T02:11:07.315Z,15.10
2022-09-16T02:13:36.547Z,15.10
2022-09-16T02:16:09.227Z,15.10
2022-09-16T02:18:40.608Z,15.10
2022-09-16T02:21:10.648Z,15.10
2022-09-16T02:23:40.347Z,15.00
2022-09-16T02:26:10.458Z,15.10
2022-09-16T02:28:39.710Z,15.10
2022-09-16T02:31:09.638Z,15.10
2022-09-16T02:33:39.914Z,15.10
2022-09-16T02:36:08.563Z,15.10
2022-09-16T02:38:39.823Z,15.10
2022-09-16T02:41:09.652Z,15.20
2022-09-16T02:43:38.674Z,15.20
2022-09-16T02:46:09.501Z,15.10
2022-09-16T02:48:43.470Z,15.10
2022-09-16T02:51:16.913Z,15.00
2022-09-16T02:53:46.193Z,15.00
2022-09-16T02:56:18.434Z,15.00
2022-09-16T02:58:46.715Z,15.10
2022-09-16T03:01:14.828Z,15.10
2022-09-16T03:03:44.039Z,15.10
2022-09-16T03:06:15.610Z,15.10
2022-09-16T03:08:44.549Z,15.00
2022-09-16T03:11:18.530Z,15.00
2022-09-16T03:13:49.563Z,15.00
2022-09-16T03:16:18.607Z,15.00
2022-09-16T03:18:52.267Z,15.00
2022-09-16T03:21:24.513Z,15.00
2022-09-16T03:23:57.763Z,15.00
2022-09-16T03:26:31.536Z,15.00
2022-09-16T03:29:04.382Z,14.90
2022-09-16T03:31:33.738Z,14.90
2022-09-16T03:34:06.943Z,15.00
2022-09-16T03:36:36.939Z,15.00
2022-09-16T03:39:05.691Z,15.00
2022-09-16T03:41:34.679Z,15.00
2022-09-16T03:44:04.240Z,14.90
2022-09-16T03:46:32.620Z,14.80
2022-09-16T03:49:00.677Z,14.80
2022-09-16T03:51:29.905Z,14.80
2022-09-16T03:53:57.703Z,14.80
2022-09-16T03:56:25.829Z,14.70
2022-09-16T03:58:53.694Z,14.70
2022-09-16T04:01:21.786Z,14.80
2022-09-16T04:03:49.670Z,14.70
2022-09-16T04:06:17.497Z,14.70
2022-09-16T04:08:50.598Z,14.70
2022-09-16T04:11:18.612Z,14.70
2022-09-16T04:13:46.390Z,14.70
2022-09-16T04:16:19.811Z,14.70
2022-09-16T04:18:48.094Z,14.70
2022-09-16T04:21:16.419Z,14.60
2022-09-16T04:23:44.532Z,14.60
2022-09-16T04:26:13.759Z,14.60
2022-09-16T04:28:41.619Z,14.50
2022-09-16T04:31:11.904Z,14.50
2022-09-16T04:33:40.143Z,14.50
2022-09-16T04:36:09.539Z,14.50
2022-09-16T04:38:37.636Z,14.50
2022-09-16T04:41:06.447Z,14.50
2022-09-16T04:43:35.712Z,14.50
2022-09-16T04:46:03.630Z,14.50
2022-09-16T04:48:31.773Z,14.40
2022-09-16T04:51:03.347Z,14.40
2022-09-16T04:53:31.270Z,14.40
2022-09-16T04:56:03.846Z,14.30
2022-09-16T04:58:31.734Z,14.30
2022-09-16T05:01:05.769Z,14.20
2022-09-16T05:03:34.063Z,14.10
2022-09-16T05:06:05.721Z,14.00
2022-09-16T05:08:35.212Z,14.00
2022-09-16T05:11:07.604Z,14.00
2022-09-16T05:13:35.878Z,13.90
2022-09-16T05:16:05.035Z,13.90
2022-09-16T05:18:34.444Z,13.90
2022-09-16T05:21:02.765Z,13.90
2022-09-16T05:23:31.004Z,14.00
2022-09-16T05:26:03.490Z,14.00
2022-09-16T05:28:31.679Z,14.00
2022-09-16T05:31:08.509Z,14.00
2022-09-16T05:33:38.336Z,14.00
2022-09-16T05:36:07.029Z,14.10
2022-09-16T05:38:35.068Z,14.10
2022-09-16T05:41:03.461Z,14.20
2022-09-16T05:43:31.318Z,14.30
2022-09-16T05:45:59.352Z,14.50
2022-09-16T05:48:27.471Z,14.60
2022-09-16T05:50:58.043Z,14.80
2022-09-16T05:53:26.434Z,15.00
2022-09-16T05:55:57.885Z,15.10
2022-09-16T05:58:26.252Z,15.10
2022-09-16T06:00:59.090Z,15.20
2022-09-16T06:03:27.793Z,15.30
2022-09-16T06:06:01.687Z,15.50
2022-09-16T06:08:29.622Z,15.90
2022-09-16T06:10:57.444Z,16.60
2022-09-16T06:13:25.286Z,17.60
2022-09-16T06:15:54.825Z,18.60
2022-09-16T06:18:23.319Z,19.50
2022-09-16T06:20:51.302Z,19.90
2022-09-16T06:23:20.897Z,19.60
2022-09-16T06:25:48.846Z,19.20
2022-09-16T06:28:16.816Z,19.00
2022-09-16T06:30:44.678Z,19.10
2022-09-16T06:33:13.002Z,19.10
2022-09-16T06:35:40.880Z,19.00
2022-09-16T06:38:08.734Z,18.70
2022-09-16T06:40:37.934Z,18.60
2022-09-16T06:43:05.766Z,18.70
2022-09-16T06:45:33.693Z,19.30
2022-09-16T06:48:01.887Z,19.80
2022-09-16T06:50:30.093Z,20.30
2022-09-16T06:52:57.941Z,20.10
2022-09-16T06:55:25.948Z,19.60
2022-09-16T06:57:57.350Z,19.30
2022-09-16T07:00:25.314Z,19.10
2022-09-16T07:02:53.322Z,18.90
2022-09-16T07:05:21.310Z,18.60
2022-09-16T07:07:49.441Z,18.60
2022-09-16T07:10:17.407Z,18.60
2022-09-16T07:12:45.246Z,18.70
2022-09-16T07:15:14.618Z,18.90
2022-09-16T07:17:42.562Z,18.80
2022-09-16T07:20:10.868Z,18.70
2022-09-16T07:22:38.782Z,19.00
2022-09-16T07:25:07.037Z,19.30
2022-09-16T07:27:35.417Z,19.70
2022-09-16T07:30:08.220Z,20.00
2022-09-16T07:32:38.459Z,20.10
2022-09-16T07:35:06.592Z,19.80
2022-09-16T07:37:38.322Z,19.70
2022-09-16T07:40:10.791Z,19.80
2022-09-16T07:42:38.778Z,19.70
2022-09-16T07:45:07.307Z,19.70
2022-09-16T07:47:35.528Z,19.80
2022-09-16T07:50:04.941Z,19.70
2022-09-16T07:52:32.888Z,19.60
2022-09-16T07:55:00.781Z,19.30
2022-09-16T07:57:28.661Z,19.20
2022-09-16T07:59:57.903Z,19.00
2022-09-16T08:02:25.913Z,18.90
2022-09-16T08:04:53.790Z,19.60
2022-09-16T08:07:23.398Z,20.10
2022-09-16T08:09:51.755Z,20.00
2022-09-16T08:12:21.657Z,19.80
2022-09-16T08:14:49.643Z,19.60
2022-09-16T08:17:17.624Z,19.50
2022-09-16T08:19:45.704Z,19.90
2022-09-16T08:22:13.825Z,21.20
2022-09-16T08:24:43.013Z,23.60
2022-09-16T08:27:10.993Z,25.40
2022-09-16T08:29:38.810Z,24.80
2022-09-16T08:32:06.804Z,23.90
2022-09-16T08:34:34.744Z,23.40
2022-09-16T08:37:02.609Z,24.20
2022-09-16T08:39:30.514Z,25.80
2022-09-16T08:42:04.916Z,26.70
2022-09-16T08:44:39.024Z,26.90
2022-09-16T08:47:10.713Z,26.50
2022-09-16T08:49:42.506Z,26.30
2022-09-16T08:52:15.341Z,25.90
2022-09-16T08:54:45.822Z,25.60
2022-09-16T08:57:17.025Z,24.60
2022-09-16T08:59:47.578Z,23.50
2022-09-16T09:02:38.361Z,23.30
2022-09-16T09:05:14.817Z,24.80
2022-09-16T09:07:49.122Z,27.20
2022-09-16T09:10:21.153Z,27.20
2022-09-16T09:12:55.282Z,27.70
2022-09-16T09:15:30.659Z,28.30
2022-09-16T09:18:06.029Z,29.40
2022-09-16T09:20:40.786Z,29.50
2022-09-16T09:23:18.563Z,30.30
2022-09-16T09:25:50.902Z,29.90
2022-09-16T09:28:27.749Z,30.10
2022-09-16T09:30:59.326Z,30.50
2022-09-16T09:33:46.027Z,31.10
2022-09-16T09:36:21.732Z,30.20
2022-09-16T09:38:53.531Z,29.00
2022-09-16T09:41:25.174Z,29.90
2022-09-16T09:43:56.687Z,30.10
2022-09-16T09:46:26.507Z,29.60
2022-09-16T09:48:56.270Z,28.90
2022-09-16T09:51:25.649Z,28.60
2022-09-16T09:53:54.915Z,28.00
2022-09-16T09:56:24.909Z,27.80
2022-09-16T09:58:58.644Z,28.10
2022-09-16T10:01:26.603Z,28.90
2022-09-16T10:03:56.076Z,29.60
2022-09-16T10:06:26.526Z,28.50
2022-09-16T10:08:57.735Z,27.60
2022-09-16T10:11:27.109Z,26.80
2022-09-16T10:13:57.899Z,26.20
2022-09-16T10:16:27.592Z,25.50
2022-09-16T10:18:57.672Z,24.50
2022-09-16T10:21:26.665Z,24.10
2022-09-16T10:23:55.177Z,23.90
2022-09-16T10:26:24.131Z,24.00
2022-09-16T10:28:57.306Z,24.20
2022-09-16T10:31:29.171Z,24.70
2022-09-16T10:34:00.983Z,24.00
2022-09-16T10:36:30.573Z,23.50
2022-09-16T10:39:03.942Z,23.20
2022-09-16T10:41:34.339Z,23.00
2022-09-16T10:44:05.059Z,22.80
2022-09-16T10:46:33.471Z,22.60
2022-09-16T10:49:02.990Z,22.20
2022-09-16T10:51:31.414Z,21.90
2022-09-16T10:54:00.217Z,21.90
2022-09-16T10:56:30.099Z,21.80
2022-09-16T10:59:06.414Z,21.70
2022-09-16T11:01:42.630Z,21.70
2022-09-16T11:04:22.504Z,22.00
2022-09-16T11:06:57.065Z,22.70
2022-09-16T11:09:27.648Z,23.10
2022-09-16T11:12:00.560Z,23.40
2022-09-16T11:14:36.237Z,23.70
2022-09-16T11:17:11.316Z,24.10
2022-09-16T11:19:44.238Z,24.40
2022-09-16T11:22:18.547Z,24.50
2022-09-16T11:24:50.794Z,24.90
2022-09-16T11:27:23.203Z,26.40
2022-09-16T11:29:58.553Z,26.70
2022-09-16T11:32:31.732Z,27.10
2022-09-16T11:35:17.626Z,27.00
2022-09-16T11:37:50.207Z,26.50
2022-09-16T11:40:23.744Z,26.60
2022-09-16T11:42:58.064Z,26.10
2022-09-16T11:45:33.691Z,25.60
2022-09-16T11:48:21.189Z,25.40
2022-09-16T11:50:51.820Z,25.10
2022-09-16T11:53:37.252Z,25.30
2022-09-16T11:56:08.799Z,24.60
2022-09-16T11:58:39.422Z,24.30
2022-09-16T12:01:12.974Z,24.00
2022-09-16T12:03:45.878Z,23.80
2022-09-16T12:06:16.704Z,24.10
2022-09-16T12:08:56.015Z,24.90
2022-09-16T12:11:27.212Z,25.40
2022-09-16T12:14:19.887Z,25.60
2022-09-16T12:16:52.478Z,26.20
2022-09-16T12:19:23.521Z,25.80
2022-09-16T12:21:57.737Z,25.20
2022-09-16T12:24:32.046Z,24.20
2022-09-16T12:27:04.214Z,23.40
2022-09-16T12:29:38.053Z,22.60
2022-09-16T12:32:10.041Z,22.50
2022-09-16T12:34:39.383Z,22.50
2022-09-16T12:37:12.313Z,22.40
2022-09-16T12:39:40.227Z,22.20
2022-09-16T12:42:20.059Z,22.40
2022-09-16T12:44:53.068Z,22.80
2022-09-16T12:47:35.623Z,24.10
2022-09-16T12:50:18.384Z,25.80
2022-09-16T12:53:00.517Z,27.40
2022-09-16T12:55:35.270Z,27.50
2022-09-16T12:58:11.281Z,29.00
2022-09-16T13:00:42.618Z,30.40
2022-09-16T13:03:15.951Z,31.70
2022-09-16T13:05:46.418Z,32.00
2022-09-16T13:08:21.082Z,32.70
2022-09-16T13:11:05.924Z,32.60
2022-09-16T13:13:47.488Z,31.90
2022-09-16T13:16:15.437Z,31.00
2022-09-16T13:18:47.256Z,30.10
2022-09-16T13:21:22.461Z,29.40
2022-09-16T13:23:53.383Z,28.30
2022-09-16T13:26:21.400Z,27.90
2022-09-16T13:28:49.565Z,28.20
2022-09-16T13:31:18.993Z,28.50
2022-09-16T13:33:51.580Z,27.90
2022-09-16T13:36:32.683Z,26.90
2022-09-16T13:39:01.943Z,26.30
2022-09-16T13:41:31.779Z,26.80
2022-09-16T13:43:59.771Z,27.10
2022-09-16T13:46:29.546Z,27.10
2022-09-16T13:49:01.474Z,26.90
2022-09-16T13:51:33.975Z,26.70
2022-09-16T13:54:04.361Z,25.90
2022-09-16T13:56:38.590Z,25.30
2022-09-16T13:59:15.879Z,24.40
2022-09-16T14:01:59.020Z,23.20
2022-09-16T14:04:33.331Z,22.20
2022-09-16T14:07:07.034Z,21.80
2022-09-16T14:09:45.976Z,21.20
2022-09-16T14:12:17.966Z,20.60
2022-09-16T14:14:47.702Z,20.00
2022-09-16T14:17:17.947Z,19.80
2022-09-16T14:19:49.060Z,19.80
2022-09-16T14:22:17.955Z,19.60
2022-09-16T14:24:46.617Z,19.60
2022-09-16T14:27:21.845Z,19.80
2022-09-16T14:29:57.058Z,20.00
2022-09-16T14:32:25.867Z,19.80
2022-09-16T14:34:55.929Z,19.70
2022-09-16T14:37:25.726Z,19.80
2022-09-16T14:39:55.479Z,20.50
2022-09-16T14:42:24.366Z,21.30
2022-09-16T14:44:53.799Z,21.70
2022-09-16T14:47:39.714Z,21.80
2022-09-16T14:50:16.120Z,21.60
2022-09-16T14:52:53.538Z,22.10
2022-09-16T14:55:22.732Z,22.00
2022-09-16T14:57:50.640Z,21.90
2022-09-16T15:00:19.266Z,21.90
2022-09-16T15:02:49.918Z,22.20
2022-09-16T15:05:22.506Z,21.90
2022-09-16T15:08:12.574Z,21.30
2022-09-16T15:10:55.240Z,20.80
2022-09-16T15:13:25.146Z,20.50
2022-09-16T15:15:55.731Z,20.50
2022-09-16T15:18:26.982Z,20.40
2022-09-16T15:21:00.800Z,20.00
2022-09-16T15:23:29.521Z,19.30
2022-09-16T15:26:00.046Z,19.00
2022-09-16T15:28:28.148Z,18.90
2022-09-16T15:30:57.559Z,18.80
2022-09-16T15:33:32.436Z,18.60
2022-09-16T15:36:03.415Z,18.50
2022-09-16T15:38:32.026Z,18.10
2022-09-16T15:41:04.324Z,18.00
2022-09-16T15:46:25.117Z,17.70
2022-09-16T15:48:55.768Z,17.80
2022-09-16T15:51:29.331Z,17.70
2022-09-16T15:53:58.743Z,17.40
2022-09-16T15:56:29.565Z,17.30
2022-09-16T15:59:00.612Z,17.30
2022-09-16T16:01:40.997Z,17.10
2022-09-16T16:04:09.698Z,16.90
2022-09-16T16:06:49.723Z,16.80
2022-09-16T16:09:32.499Z,16.70
2022-09-16T16:12:01.790Z,16.40
2022-09-16T16:14:32.191Z,16.20
2022-09-16T16:17:12.793Z,16.10
2022-09-16T16:19:41.646Z,15.80
2022-09-16T16:22:11.437Z,15.30
2022-09-16T16:24:39.556Z,15.00
2022-09-16T16:27:08.385Z,14.90
2022-09-16T16:29:36.140Z,14.80
2022-09-16T16:32:06.093Z,14.70
2022-09-16T16:34:34.518Z,14.60
2022-09-16T16:37:02.278Z,14.60
2022-09-16T16:39:31.534Z,14.50
2022-09-16T16:41:59.472Z,14.40
2022-09-16T16:44:28.405Z,14.30
2022-09-16T16:46:56.903Z,14.20
2022-09-16T16:49:30.138Z,14.20
2022-09-16T16:51:58.734Z,14.20
2022-09-16T16:54:26.990Z,14.30
2022-09-16T16:56:57.232Z,14.30
2022-09-16T16:59:25.224Z,14.50
2022-09-16T17:01:54.247Z,14.50
2022-09-16T17:04:22.854Z,14.50
2022-09-16T17:07:08.281Z,14.40
2022-09-16T17:09:40.005Z,14.30
2022-09-16T17:12:10.221Z,14.00
2022-09-16T17:14:38.809Z,13.80
2022-09-16T17:17:06.899Z,13.50
2022-09-16T17:19:35.123Z,13.40
2022-09-16T17:22:03.059Z,13.20
2022-09-16T17:24:31.114Z,13.10
2022-09-16T17:26:59.146Z,13.00
2022-09-16T17:29:28.410Z,12.80
2022-09-16T17:31:57.196Z,12.80
2022-09-16T17:34:26.332Z,12.60
2022-09-16T17:36:55.164Z,12.50
2022-09-16T17:39:23.169Z,12.50
2022-09-16T17:41:51.558Z,12.40
2022-09-16T17:44:20.451Z,12.30
2022-09-16T17:46:50.542Z,12.30
2022-09-16T17:49:20.122Z,12.20
2022-09-16T17:51:48.242Z,12.20
2022-09-16T17:54:16.383Z,12.10
2022-09-16T17:56:44.335Z,12.10
2022-09-16T17:59:12.812Z,11.90
2022-09-16T18:01:40.874Z,11.90
2022-09-16T18:04:10.420Z,11.80
2022-09-16T18:06:40.993Z,11.70
2022-09-16T18:09:08.988Z,11.70
2022-09-16T18:11:36.940Z,11.70
2022-09-16T18:14:06.454Z,11.60
2022-09-16T18:16:34.559Z,11.50
2022-09-16T18:19:02.930Z,11.50
2022-09-16T18:21:32.484Z,11.50
2022-09-16T18:24:03.472Z,11.50
2022-09-16T18:26:31.901Z,11.50
2022-09-16T18:29:10.367Z,11.50
2022-09-16T18:31:39.903Z,11.50
2022-09-16T18:34:08.026Z,11.50
2022-09-16T18:36:39.655Z,11.50
2022-09-16T18:39:08.411Z,11.50
2022-09-16T18:41:37.171Z,11.60
2022-09-16T18:44:07.372Z,11.60
2022-09-16T18:46:36.420Z,11.60
2022-09-16T18:49:06.312Z,11.50
2022-09-16T18:51:37.650Z,11.50
2022-09-16T18:54:06.507Z,11.50
2022-09-16T18:56:35.110Z,11.60
2022-09-16T19:01:52.924Z,11.60
2022-09-16T19:04:22.358Z,11.60
2022-09-16T19:06:52.923Z,11.50
2022-09-16T19:09:21.709Z,11.50
2022-09-16T19:11:49.858Z,11.40
2022-09-16T19:14:18.045Z,11.30
2022-09-16T19:16:46.508Z,11.30
2022-09-16T19:19:15.612Z,11.30
2022-09-16T19:21:43.896Z,11.20
2022-09-16T19:24:14.857Z,11.20
2022-09-16T19:26:43.349Z,11.20
2022-09-16T19:29:11.755Z,11.10
2022-09-16T19:31:40.783Z,11.10
2022-09-16T19:34:09.303Z,11.00
2022-09-16T19:36:37.751Z,11.00
2022-09-16T19:39:06.029Z,11.00
2022-09-16T19:41:35.912Z,10.90
2022-09-16T19:44:05.561Z,10.90
2022-09-16T19:46:34.487Z,10.90
2022-09-16T19:49:02.767Z,10.90
2022-09-16T19:51:31.369Z,10.80
2022-09-16T19:54:00.683Z,10.80
2022-09-16T19:56:29.959Z,10.80
2022-09-16T19:59:00.449Z,10.70
2022-09-16T20:01:29.344Z,10.70
2022-09-16T20:03:57.352Z,10.70
2022-09-16T20:06:26.311Z,10.70
2022-09-16T20:08:55.369Z,10.60
2022-09-16T20:11:24.565Z,10.70
2022-09-16T20:13:54.306Z,10.70
2022-09-16T20:16:25.659Z,10.70
2022-09-16T20:18:54.353Z,10.80
2022-09-16T20:21:23.475Z,10.80
2022-09-16T20:23:51.932Z,10.80
2022-09-16T20:26:20.774Z,10.90
2022-09-16T20:28:50.036Z,10.90
2022-09-16T20:31:21.218Z,11.00
2022-09-16T20:33:51.580Z,11.00
2022-09-16T20:36:20.160Z,11.10
2022-09-16T20:38:48.910Z,11.10
2022-09-16T20:41:18.206Z,11.10
2022-09-16T20:43:46.607Z,11.10
2022-09-16T20:46:15.473Z,11.10
2022-09-16T20:48:43.992Z,11.10
2022-09-16T20:51:14.363Z,11.00
2022-09-16T20:53:42.813Z,10.90
2022-09-16T20:56:11.718Z,10.90
2022-09-16T20:58:40.094Z,10.80
2022-09-16T21:01:09.342Z,10.70
2022-09-16T21:03:37.558Z,10.60
2022-09-16T21:06:06.702Z,10.60
2022-09-16T21:08:36.941Z,10.50
2022-09-16T21:11:05.698Z,10.50
2022-09-16T21:13:33.585Z,10.50
2022-09-16T21:16:01.660Z,10.40
2022-09-16T21:18:29.647Z,10.30
2022-09-16T21:21:01.294Z,10.20
2022-09-16T21:23:29.857Z,10.20
2022-09-16T21:26:03.863Z,10.10
2022-09-16T21:28:33.233Z,10.00
2022-09-16T21:31:02.730Z,10.00
2022-09-16T21:33:31.388Z,10.00
2022-09-16T21:35:59.405Z,9.80
2022-09-16T21:38:29.089Z,9.80
2022-09-16T21:40:57.873Z,9.80
2022-09-16T21:43:28.490Z,9.80
2022-09-16T21:45:56.458Z,9.70
2022-09-16T21:48:25.194Z,9.80
2022-09-16T21:50:53.618Z,9.70
2022-09-16T21:53:21.746Z,9.80
2022-09-16T21:55:49.741Z,9.70
2022-09-16T21:58:17.786Z,9.70
2022-09-16T22:00:47.044Z,9.70
2022-09-16T22:03:15.591Z,9.70
2022-09-16T22:05:43.420Z,9.70
2022-09-16T22:08:11.247Z,9.60
2022-09-16T22:10:39.341Z,9.60
2022-09-16T22:13:07.766Z,9.60
2022-09-16T22:15:35.722Z,9.60
2022-09-16T22:18:05.185Z,9.60
2022-09-16T22:20:33.777Z,9.60
2022-09-16T22:23:01.689Z,9.60
2022-09-16T22:25:29.499Z,9.60
2022-09-16T22:27:57.381Z,9.50
2022-09-16T22:30:25.249Z,9.60
2022-09-16T22:32:53.171Z,9.60
2022-09-16T22:35:22.229Z,9.50
2022-09-16T22:37:49.924Z,9.40
2022-09-16T22:40:18.441Z,9.40
2022-09-16T22:42:46.355Z,9.40
2022-09-16T22:45:14.260Z,9.40
2022-09-16T22:47:42.120Z,9.30
2022-09-16T22:50:10.071Z,9.30
2022-09-16T22:52:39.296Z,9.30
2022-09-16T22:55:09.174Z,9.20
2022-09-16T22:57:38.055Z,9.30
2022-09-16T23:00:07.511Z,9.30
2022-09-16T23:02:35.522Z,9.20
2022-09-16T23:05:03.351Z,9.20
2022-09-16T23:07:31.178Z,9.20
2022-09-16T23:10:00.538Z,9.10
2022-09-16T23:12:28.372Z,9.10
2022-09-16T23:14:59.912Z,9.10
2022-09-16T23:17:28.330Z,9.10
2022-09-16T23:19:56.192Z,9.10
2022-09-16T23:22:24.121Z,9.10
2022-09-16T23:24:52.101Z,9.10
2022-09-16T23:27:21.242Z,9.00
2022-09-16T23:29:49.195Z,8.90
2022-09-16T23:32:17.100Z,8.90
2022-09-16T23:34:44.991Z,8.80
2022-09-16T23:37:12.858Z,8.80
2022-09-16T23:39:40.696Z,8.80
2022-09-16T23:42:08.714Z,8.80
2022-09-16T23:44:38.008Z,8.80
2022-09-16T23:47:06.913Z,8.80
2022-09-16T23:49:34.721Z,8.80
2022-09-16T23:52:02.786Z,8.80
2022-09-16T23:54:30.630Z,8.70
2022-09-16T23:56:58.436Z,8.70
2022-09-16T23:59:26.442Z,8.70
